Time;durP1;ratioP1;P1;durP2;ratioP2;P2;SDS_P1;SDS_P2;PMS_P1;PMS_P2;Temp;Humidity;BMP_temperature;BMP_pressure;BME280_temperature;BME280_humidity;BME280_pressure;Samples;Min_cycle;Max_cycle;Signal;HPM_P1;HPM_P2
2022/11/06 00:00:21;;;;;;;14.30;8.40;;;;;;;;;;5062540;28;20424;-81
2022/11/06 00:02:47;;;;;;;12.87;8.90;;;;;;;;;;5063465;28;20434;-81
2022/11/06 00:07:58;;;;;;;10.60;8.38;;;;;;;;;;5059777;28;20416;-79
2022/11/06 00:10:25;;;;;;;12.05;8.00;;;;;;;;;;5062819;28;20434;-80
2022/11/06 00:12:51;;;;;;;12.27;7.90;;;;;;;;;;5059149;28;20427;-80
2022/11/06 00:15:19;;;;;;;9.43;7.32;;;;;;;;;;5056087;28;20428;-79
2022/11/06 00:17:48;;;;;;;9.75;7.10;;;;;;;;;;5060727;28;20412;-79
2022/11/06 00:20:14;;;;;;;11.40;8.13;;;;;;;;;;5057809;28;20427;-81
2022/11/06 00:22:40;;;;;;;10.20;7.60;;;;;;;;;;5061385;28;20412;-81
2022/11/06 00:25:09;;;;;;;13.52;8.00;;;;;;;;;;5060358;28;20435;-81
2022/11/06 00:27:35;;;;;;;13.43;8.00;;;;;;;;;;5058779;28;20430;-81
2022/11/06 00:30:02;;;;;;;10.23;8.23;;;;;;;;;;5063450;28;20425;-81
2022/11/06 00:32:28;;;;;;;10.80;7.38;;;;;;;;;;5071422;28;20414;-81
2022/11/06 00:34:55;;;;;;;11.55;7.88;;;;;;;;;;5086135;28;20426;-81
2022/11/06 00:37:21;;;;;;;10.30;7.07;;;;;;;;;;5074289;28;20428;-81
2022/11/06 00:39:47;;;;;;;10.43;7.40;;;;;;;;;;5064937;28;20437;-82
2022/11/06 00:42:15;;;;;;;10.98;7.85;;;;;;;;;;5060375;28;20409;-81
2022/11/06 00:44:41;;;;;;;10.32;8.10;;;;;;;;;;5061508;28;20436;-81
2022/11/06 00:47:08;;;;;;;12.40;7.40;;;;;;;;;;5063652;28;20434;-82
2022/11/06 00:49:34;;;;;;;14.10;7.45;;;;;;;;;;5063339;28;20430;-81
2022/11/06 00:52:01;;;;;;;12.87;7.80;;;;;;;;;;5058831;28;20412;-81
2022/11/06 00:54:27;;;;;;;10.82;6.97;;;;;;;;;;5063728;28;21065;-82
2022/11/06 00:56:54;;;;;;;12.83;7.60;;;;;;;;;;5061211;28;20440;-81
2022/11/06 00:59:21;;;;;;;12.43;7.63;;;;;;;;;;5061720;28;20433;-80
2022/11/06 01:01:48;;;;;;;11.25;7.18;;;;;;;;;;5063445;28;20443;-80
2022/11/06 01:04:15;;;;;;;10.68;7.35;;;;;;;;;;5067051;28;20777;-80
2022/11/06 01:06:42;;;;;;;9.77;7.47;;;;;;;;;;5065437;28;20433;-80
2022/11/06 01:09:11;;;;;;;12.02;7.50;;;;;;;;;;5064706;28;20793;-80
2022/11/06 01:11:38;;;;;;;15.13;7.55;;;;;;;;;;5066678;28;20427;-80
2022/11/06 01:14:06;;;;;;;12.45;7.13;;;;;;;;;;5066258;28;20428;-80
2022/11/06 01:16:33;;;;;;;9.70;7.35;;;;;;;;;;5064261;28;20449;-80
2022/11/06 01:19:00;;;;;;;10.77;7.45;;;;;;;;;;5065234;28;22795;-81
2022/11/06 01:21:28;;;;;;;12.50;7.75;;;;;;;;;;5062993;28;20790;-80
2022/11/06 01:23:55;;;;;;;15.50;7.80;;;;;;;;;;5063057;28;20428;-79
2022/11/06 01:26:22;;;;;;;10.52;7.75;;;;;;;;;;5062150;28;20429;-81
2022/11/06 01:28:48;;;;;;;10.30;6.57;;;;;;;;;;5058960;28;21198;-81
2022/11/06 01:31:17;;;;;;;10.52;7.68;;;;;;;;;;5061775;28;20437;-82
2022/11/06 01:33:46;;;;;;;11.55;7.00;;;;;;;;;;5064474;28;20480;-82
2022/11/06 01:36:13;;;;;;;9.25;7.20;;;;;;;;;;5062232;28;20427;-81
2022/11/06 01:38:40;;;;;;;12.93;7.68;;;;;;;;;;5061685;28;20428;-81
2022/11/06 01:41:07;;;;;;;11.98;7.13;;;;;;;;;;5072058;28;20419;-81
2022/11/06 01:43:48;;;;;;;12.65;8.27;;;;;;;;;;5060920;28;20429;-81
2022/11/06 01:46:14;;;;;;;8.77;7.00;;;;;;;;;;5061241;28;20435;-81
2022/11/06 01:48:43;;;;;;;8.95;7.00;;;;;;;;;;5061985;28;20440;-79
2022/11/06 01:51:11;;;;;;;12.75;7.40;;;;;;;;;;5061000;28;20934;-82
2022/11/06 01:53:38;;;;;;;12.07;7.43;;;;;;;;;;5061343;28;20436;-82
2022/11/06 01:56:05;;;;;;;9.50;7.05;;;;;;;;;;5060047;28;20799;-81
2022/11/06 01:58:34;;;;;;;11.07;7.28;;;;;;;;;;5062700;28;20485;-82
2022/11/06 02:01:01;;;;;;;10.40;6.97;;;;;;;;;;5067011;28;20435;-82
2022/11/06 02:03:28;;;;;;;11.02;7.10;;;;;;;;;;5066871;28;20408;-79
2022/11/06 02:05:56;;;;;;;11.45;7.15;;;;;;;;;;5065804;28;20433;-81
2022/11/06 02:08:24;;;;;;;10.18;7.57;;;;;;;;;;5066260;28;20424;-81
2022/11/06 02:10:52;;;;;;;11.80;7.18;;;;;;;;;;5065229;28;20486;-82
2022/11/06 02:13:24;;;;;;;8.25;6.50;;;;;;;;;;5063356;28;20424;-81
2022/11/06 02:15:53;;;;;;;11.45;7.28;;;;;;;;;;5063364;28;20427;-81
2022/11/06 02:18:45;;;;;;;13.27;8.00;;;;;;;;;;5069494;28;20444;-81
2022/11/06 02:21:29;;;;;;;11.95;7.60;;;;;;;;;;5062124;28;20425;-81
2022/11/06 02:24:04;;;;;;;9.52;6.90;;;;;;;;;;5042346;28;20413;-81
2022/11/06 02:26:44;;;;;;;10.70;7.40;;;;;;;;;;5061628;28;20429;-81
2022/11/06 02:29:14;;;;;;;11.33;7.50;;;;;;;;;;5062539;28;20420;-81
2022/11/06 02:31:42;;;;;;;11.10;7.60;;;;;;;;;;5059886;28;20456;-81
2022/11/06 02:36:46;;;;;;;10.48;6.78;;;;;;;;;;5057406;28;20421;-81
2022/11/06 02:39:16;;;;;;;11.83;6.90;;;;;;;;;;5061114;28;20438;-81
2022/11/06 02:41:45;;;;;;;10.55;7.05;;;;;;;;;;5060905;28;20440;-81
2022/11/06 02:44:13;;;;;;;12.68;7.43;;;;;;;;;;5063154;28;20428;-80
2022/11/06 02:46:41;;;;;;;14.23;7.03;;;;;;;;;;5058698;28;20432;-81
2022/11/06 02:49:10;;;;;;;12.10;7.35;;;;;;;;;;5063160;28;20427;-81
2022/11/06 02:51:39;;;;;;;10.10;7.15;;;;;;;;;;5063140;28;20425;-81
2022/11/06 02:54:06;;;;;;;10.43;7.40;;;;;;;;;;5064732;28;20439;-81
2022/11/06 02:56:36;;;;;;;8.70;7.18;;;;;;;;;;5060830;28;20927;-81
2022/11/06 02:59:05;;;;;;;11.32;7.43;;;;;;;;;;5066664;28;20431;-81
2022/11/06 03:01:34;;;;;;;11.45;7.63;;;;;;;;;;5061426;28;20463;-81
2022/11/06 03:04:03;;;;;;;11.98;7.20;;;;;;;;;;5060425;28;20933;-81
2022/11/06 03:06:31;;;;;;;12.60;6.90;;;;;;;;;;5062743;28;20474;-81
2022/11/06 03:09:02;;;;;;;11.93;7.80;;;;;;;;;;5061948;28;20424;-81
2022/11/06 03:11:29;;;;;;;9.00;6.80;;;;;;;;;;5061119;28;20433;-81
2022/11/06 03:13:58;;;;;;;11.68;7.35;;;;;;;;;;5063470;28;20427;-81
2022/11/06 03:16:37;;;;;;;10.13;7.20;;;;;;;;;;5067206;28;20425;-81
2022/11/06 03:19:06;;;;;;;11.32;6.80;;;;;;;;;;5081525;28;20417;-81
2022/11/06 03:21:37;;;;;;;11.15;7.28;;;;;;;;;;5082843;28;20420;-81
2022/11/06 03:24:08;;;;;;;10.52;6.40;;;;;;;;;;5084947;28;20410;-81
2022/11/06 03:26:36;;;;;;;10.55;6.75;;;;;;;;;;5081753;28;20439;-81
2022/11/06 03:29:07;;;;;;;10.98;6.70;;;;;;;;;;5059713;28;20412;-81
2022/11/06 03:31:37;;;;;;;11.10;6.93;;;;;;;;;;5060087;28;20436;-81
2022/11/06 03:34:05;;;;;;;10.50;6.43;;;;;;;;;;5063203;28;20931;-81
2022/11/06 03:36:34;;;;;;;12.68;6.78;;;;;;;;;;5060585;28;20426;-81
2022/11/06 03:39:01;;;;;;;11.07;6.63;;;;;;;;;;5064062;28;20425;-82
2022/11/06 03:41:30;;;;;;;8.02;6.40;;;;;;;;;;5065037;28;20421;-81
2022/11/06 03:44:00;;;;;;;11.25;6.63;;;;;;;;;;5055991;28;20428;-81
2022/11/06 03:46:29;;;;;;;15.02;6.90;;;;;;;;;;5060260;28;20439;-81
2022/11/06 03:48:59;;;;;;;11.50;6.50;;;;;;;;;;5059907;28;20424;-81
2022/11/06 03:51:31;;;;;;;9.75;6.20;;;;;;;;;;5060645;28;20435;-81
2022/11/06 03:53:59;;;;;;;8.60;6.60;;;;;;;;;;5062033;28;20421;-81
2022/11/06 03:56:28;;;;;;;8.10;6.50;;;;;;;;;;5063358;28;20424;-81
2022/11/06 03:58:55;;;;;;;11.43;7.05;;;;;;;;;;5061175;28;20425;-81
2022/11/06 04:01:24;;;;;;;11.65;6.50;;;;;;;;;;5061536;28;20428;-81
2022/11/06 04:03:54;;;;;;;8.77;6.30;;;;;;;;;;5063304;28;21013;-81
2022/11/06 04:06:23;;;;;;;11.50;6.55;;;;;;;;;;5060968;28;20926;-81
2022/11/06 04:14:25;;;;;;;13.27;7.15;;;;;;;;;;5068309;28;20930;-81
2022/11/06 04:16:53;;;;;;;11.25;6.80;;;;;;;;;;5065447;28;20429;-81
2022/11/06 04:19:21;;;;;;;12.57;6.15;;;;;;;;;;5067156;28;20438;-81
2022/11/06 04:21:55;;;;;;;12.65;6.28;;;;;;;;;;5061685;28;20938;-81
2022/11/06 04:27:15;;;;;;;8.82;6.70;;;;;;;;;;5064952;28;20525;-81
2022/11/06 04:29:49;;;;;;;7.80;6.10;;;;;;;;;;5064696;28;20429;-81
2022/11/06 04:32:18;;;;;;;9.75;6.40;;;;;;;;;;5061095;28;20409;-81
2022/11/06 04:34:47;;;;;;;11.98;6.78;;;;;;;;;;5066813;28;20790;-81
2022/11/06 04:37:19;;;;;;;10.70;6.53;;;;;;;;;;5064414;28;20897;-81
2022/11/06 04:39:52;;;;;;;11.43;6.30;;;;;;;;;;5062681;28;20440;-81
2022/11/06 04:42:22;;;;;;;10.13;6.60;;;;;;;;;;5060961;28;20417;-81
2022/11/06 04:44:50;;;;;;;8.32;6.40;;;;;;;;;;5063060;28;20427;-81
2022/11/06 04:47:18;;;;;;;10.60;7.40;;;;;;;;;;5061374;28;20555;-81
2022/11/06 04:49:45;;;;;;;10.82;7.57;;;;;;;;;;5066081;28;20460;-81
2022/11/06 04:52:13;;;;;;;10.30;6.70;;;;;;;;;;5063349;28;20409;-81
2022/11/06 04:54:41;;;;;;;12.18;7.00;;;;;;;;;;5071666;28;20412;-81
2022/11/06 04:57:07;;;;;;;10.38;7.38;;;;;;;;;;5068024;28;21150;-81
2022/11/06 04:59:35;;;;;;;10.27;7.17;;;;;;;;;;5065856;28;20494;-81
2022/11/06 05:02:01;;;;;;;9.98;7.30;;;;;;;;;;5060220;28;20428;-81
2022/11/06 05:04:29;;;;;;;11.82;7.30;;;;;;;;;;5065755;28;20432;-81
2022/11/06 05:06:56;;;;;;;9.25;6.68;;;;;;;;;;5067848;28;20794;-81
2022/11/06 05:09:24;;;;;;;12.63;6.53;;;;;;;;;;5067394;28;20464;-81
2022/11/06 05:11:52;;;;;;;9.75;6.00;;;;;;;;;;5066579;28;20434;-81
2022/11/06 05:14:18;;;;;;;10.00;6.30;;;;;;;;;;5064844;28;20425;-81
2022/11/06 05:16:45;;;;;;;11.38;6.60;;;;;;;;;;5066432;28;20424;-81
2022/11/06 05:19:11;;;;;;;11.25;6.47;;;;;;;;;;5064441;28;20429;-81
2022/11/06 05:24:22;;;;;;;11.60;5.78;;;;;;;;;;5062854;28;20403;-81
2022/11/06 05:26:48;;;;;;;8.05;6.13;;;;;;;;;;5068823;28;20404;-81
2022/11/06 05:29:16;;;;;;;10.10;6.50;;;;;;;;;;5068153;28;20433;-81
2022/11/06 05:31:42;;;;;;;10.10;5.60;;;;;;;;;;5063781;28;20431;-81
2022/11/06 05:34:08;;;;;;;10.48;6.30;;;;;;;;;;5064063;28;20901;-81
2022/11/06 05:36:35;;;;;;;8.93;6.43;;;;;;;;;;5067609;28;20422;-81
2022/11/06 05:39:02;;;;;;;10.55;6.90;;;;;;;;;;5060572;28;20449;-81
2022/11/06 05:41:28;;;;;;;13.48;6.50;;;;;;;;;;5063438;28;20411;-81
2022/11/06 05:43:54;;;;;;;8.68;6.05;;;;;;;;;;5064741;28;20422;-81
2022/11/06 05:46:22;;;;;;;10.27;5.85;;;;;;;;;;5060903;28;20969;-81
2022/11/06 05:48:50;;;;;;;10.80;6.38;;;;;;;;;;5060355;28;20440;-81
2022/11/06 05:51:17;;;;;;;10.65;6.20;;;;;;;;;;5060077;28;20427;-81
2022/11/06 05:53:43;;;;;;;11.93;6.20;;;;;;;;;;5061467;28;20990;-81
2022/11/06 05:56:10;;;;;;;9.67;6.30;;;;;;;;;;5064277;28;20433;-81
2022/11/06 05:58:36;;;;;;;12.30;6.00;;;;;;;;;;5062470;28;20426;-81
2022/11/06 06:01:03;;;;;;;9.90;5.95;;;;;;;;;;5065212;28;20422;-81
2022/11/06 06:03:30;;;;;;;10.60;6.40;;;;;;;;;;5062017;28;20421;-81
2022/11/06 06:05:57;;;;;;;10.88;6.60;;;;;;;;;;5062253;28;20922;-81
2022/11/06 06:08:23;;;;;;;11.20;6.40;;;;;;;;;;5064427;28;20439;-81
2022/11/06 06:10:49;;;;;;;9.77;6.35;;;;;;;;;;5064830;28;20425;-81
2022/11/06 06:13:16;;;;;;;12.90;7.10;;;;;;;;;;5065274;28;20477;-81
2022/11/06 06:15:42;;;;;;;11.02;6.85;;;;;;;;;;5061875;28;20994;-81
2022/11/06 06:18:09;;;;;;;11.45;6.32;;;;;;;;;;5060991;28;20498;-81
2022/11/06 06:20:38;;;;;;;10.32;6.55;;;;;;;;;;5062270;28;20498;-81
2022/11/06 06:23:05;;;;;;;10.10;7.30;;;;;;;;;;5064944;28;20425;-81
2022/11/06 06:25:32;;;;;;;12.40;6.43;;;;;;;;;;5063826;28;20425;-81
2022/11/06 06:28:01;;;;;;;13.07;6.78;;;;;;;;;;5065002;28;20421;-81
2022/11/06 06:30:27;;;;;;;10.88;6.93;;;;;;;;;;5062728;28;20432;-81
2022/11/06 06:32:55;;;;;;;10.10;6.60;;;;;;;;;;5059743;28;20425;-81
2022/11/06 06:35:22;;;;;;;11.02;6.45;;;;;;;;;;5060612;28;20472;-81
2022/11/06 06:37:53;;;;;;;9.55;6.70;;;;;;;;;;5061474;28;20427;-81
2022/11/06 06:40:20;;;;;;;9.75;5.82;;;;;;;;;;5059866;28;20430;-81
2022/11/06 06:42:46;;;;;;;12.15;6.25;;;;;;;;;;5061227;28;20941;-80
2022/11/06 06:45:13;;;;;;;10.13;6.50;;;;;;;;;;5063348;28;20424;-81
2022/11/06 06:47:39;;;;;;;9.35;5.95;;;;;;;;;;5061047;28;20921;-81
2022/11/06 06:50:06;;;;;;;10.67;6.10;;;;;;;;;;5063500;28;20519;-81
2022/11/06 06:52:33;;;;;;;9.20;6.20;;;;;;;;;;5063266;28;20413;-81
2022/11/06 06:55:01;;;;;;;9.80;6.18;;;;;;;;;;5062969;28;20407;-81
2022/11/06 06:57:27;;;;;;;9.20;6.00;;;;;;;;;;5062084;28;20428;-81
2022/11/06 06:59:53;;;;;;;10.38;5.68;;;;;;;;;;5062576;28;20425;-81
2022/11/06 07:02:20;;;;;;;11.27;5.40;;;;;;;;;;5060758;28;20415;-81
2022/11/06 07:04:46;;;;;;;8.52;5.70;;;;;;;;;;5059036;28;20428;-81
2022/11/06 07:07:13;;;;;;;12.55;5.10;;;;;;;;;;5063352;28;20453;-81
2022/11/06 07:09:39;;;;;;;11.43;5.33;;;;;;;;;;5062472;28;21013;-81
2022/11/06 07:12:09;;;;;;;13.27;5.05;;;;;;;;;;5067465;28;20411;-81
2022/11/06 07:14:35;;;;;;;6.15;4.53;;;;;;;;;;5061399;28;20469;-81
2022/11/06 07:17:01;;;;;;;7.00;5.10;;;;;;;;;;5061900;28;20895;-81
2022/11/06 07:19:28;;;;;;;9.60;5.10;;;;;;;;;;5061984;28;20879;-81
2022/11/06 07:21:55;;;;;;;11.35;5.00;;;;;;;;;;5057601;28;20914;-81
2022/11/06 07:24:22;;;;;;;8.35;4.78;;;;;;;;;;5061023;28;20454;-80
2022/11/06 07:26:50;;;;;;;8.10;4.90;;;;;;;;;;5061878;28;20782;-81
2022/11/06 07:29:17;;;;;;;11.18;5.40;;;;;;;;;;5079621;28;20421;-80
2022/11/06 07:31:44;;;;;;;8.50;4.70;;;;;;;;;;5085483;28;20519;-81
2022/11/06 07:34:10;;;;;;;6.28;4.82;;;;;;;;;;5058307;28;20942;-80
2022/11/06 07:36:36;;;;;;;10.67;4.97;;;;;;;;;;5059460;28;20418;-81
2022/11/06 07:39:03;;;;;;;6.10;4.82;;;;;;;;;;5059951;28;20429;-81
2022/11/06 07:41:30;;;;;;;7.65;4.68;;;;;;;;;;5058119;28;20416;-81
2022/11/06 07:43:56;;;;;;;10.20;4.73;;;;;;;;;;5061228;28;20429;-80
2022/11/06 07:46:24;;;;;;;9.10;4.60;;;;;;;;;;5066051;28;20439;-81
2022/11/06 07:48:53;;;;;;;11.80;5.30;;;;;;;;;;5064493;28;20432;-81
2022/11/06 07:51:20;;;;;;;9.75;4.60;;;;;;;;;;5070713;28;20424;-81
2022/11/06 07:53:48;;;;;;;6.77;4.20;;;;;;;;;;5067820;28;20423;-81
2022/11/06 07:56:14;;;;;;;10.60;4.90;;;;;;;;;;5064815;28;20426;-81
2022/11/06 07:58:40;;;;;;;7.95;4.63;;;;;;;;;;5063165;28;20425;-82
2022/11/06 08:01:12;;;;;;;6.65;4.30;;;;;;;;;;5065049;28;21026;-81
2022/11/06 08:03:40;;;;;;;9.25;4.43;;;;;;;;;;5066228;28;20422;-81
2022/11/06 08:06:06;;;;;;;10.30;3.90;;;;;;;;;;5063724;28;20419;-81
2022/11/06 08:08:33;;;;;;;10.45;4.32;;;;;;;;;;5068267;28;20420;-81
2022/11/06 08:11:01;;;;;;;6.90;4.32;;;;;;;;;;5066353;28;20434;-81
2022/11/06 08:13:28;;;;;;;8.27;3.85;;;;;;;;;;5063118;28;20799;-80
2022/11/06 08:15:54;;;;;;;9.45;4.93;;;;;;;;;;5065387;28;20912;-79
2022/11/06 08:18:21;;;;;;;6.18;3.78;;;;;;;;;;5072902;28;20417;-79
2022/11/06 08:20:48;;;;;;;10.82;4.80;;;;;;;;;;5066095;28;20781;-81
2022/11/06 08:23:15;;;;;;;8.02;5.40;;;;;;;;;;5058830;28;20425;-80
2022/11/06 08:25:41;;;;;;;10.73;6.03;;;;;;;;;;5066382;28;20413;-79
2022/11/06 08:28:08;;;;;;;12.25;7.60;;;;;;;;;;5066640;28;20425;-80
2022/11/06 08:30:35;;;;;;;6.55;4.75;;;;;;;;;;5066839;28;20416;-80
2022/11/06 08:33:02;;;;;;;9.43;4.50;;;;;;;;;;5066946;28;20784;-80
2022/11/06 08:35:29;;;;;;;7.63;5.60;;;;;;;;;;5069109;28;20409;-79
2022/11/06 08:37:57;;;;;;;6.50;3.60;;;;;;;;;;5066509;28;20869;-80
2022/11/06 08:40:26;;;;;;;9.23;6.88;;;;;;;;;;5062795;28;20433;-79
2022/11/06 08:42:52;;;;;;;6.60;4.30;;;;;;;;;;5066541;28;20419;-79
2022/11/06 08:45:21;;;;;;;7.75;4.07;;;;;;;;;;5064012;28;20432;-81
2022/11/06 08:47:47;;;;;;;16.13;5.83;;;;;;;;;;5060379;28;20953;-81
2022/11/06 08:50:14;;;;;;;9.07;4.93;;;;;;;;;;5068277;28;20423;-81
2022/11/06 08:52:40;;;;;;;7.80;4.50;;;;;;;;;;5061288;28;20452;-81
2022/11/06 08:55:08;;;;;;;6.40;3.78;;;;;;;;;;5071442;28;20434;-81
2022/11/06 08:57:36;;;;;;;7.63;4.63;;;;;;;;;;5065487;28;20417;-81
2022/11/06 09:00:03;;;;;;;8.38;4.18;;;;;;;;;;5065546;28;20433;-81
2022/11/06 09:02:30;;;;;;;7.65;4.60;;;;;;;;;;5065166;28;20907;-81
2022/11/06 09:04:57;;;;;;;9.55;4.70;;;;;;;;;;5064823;28;20419;-79
2022/11/06 09:07:23;;;;;;;5.82;4.18;;;;;;;;;;5064066;28;20462;-81
2022/11/06 09:09:49;;;;;;;7.60;3.80;;;;;;;;;;5066240;28;20413;-79
2022/11/06 09:12:17;;;;;;;8.02;4.00;;;;;;;;;;5064566;28;20426;-80
2022/11/06 09:14:44;;;;;;;13.03;7.07;;;;;;;;;;5065514;28;20895;-80
2022/11/06 09:17:12;;;;;;;6.40;4.70;;;;;;;;;;5066623;28;20409;-80
2022/11/06 09:19:38;;;;;;;6.88;4.57;;;;;;;;;;5066116;28;20429;-80
2022/11/06 09:22:05;;;;;;;7.72;3.75;;;;;;;;;;5066125;28;20415;-80
2022/11/06 09:24:31;;;;;;;11.60;6.20;;;;;;;;;;5065612;28;20439;-80
2022/11/06 09:26:58;;;;;;;6.00;3.60;;;;;;;;;;5061101;28;22255;-80
2022/11/06 09:29:25;;;;;;;8.45;3.60;;;;;;;;;;5060342;28;20924;-79
2022/11/06 09:31:53;;;;;;;7.20;3.53;;;;;;;;;;5061820;28;20436;-80
2022/11/06 09:34:19;;;;;;;8.18;3.22;;;;;;;;;;5059967;28;20458;-80
2022/11/06 09:36:46;;;;;;;7.20;3.67;;;;;;;;;;5059177;28;20441;-80
2022/11/06 09:39:13;;;;;;;4.60;3.33;;;;;;;;;;5058881;28;20433;-80
2022/11/06 09:41:45;;;;;;;14.65;10.18;;;;;;;;;;5066262;28;20483;-80
2022/11/06 09:44:19;;;;;;;7.63;5.00;;;;;;;;;;5063783;28;20903;-80
2022/11/06 09:46:48;;;;;;;7.25;3.40;;;;;;;;;;5059305;28;20922;-81
2022/11/06 09:49:19;;;;;;;7.22;4.00;;;;;;;;;;5060516;28;20936;-80
2022/11/06 09:51:48;;;;;;;8.73;4.53;;;;;;;;;;5062275;28;20444;-80
2022/11/06 09:54:16;;;;;;;6.32;3.60;;;;;;;;;;5059446;28;20436;-80
2022/11/06 09:56:43;;;;;;;8.50;3.35;;;;;;;;;;5061639;28;20959;-81
2022/11/06 09:59:12;;;;;;;7.57;3.70;;;;;;;;;;5060137;28;20521;-81
2022/11/06 10:01:42;;;;;;;6.25;3.03;;;;;;;;;;5058990;28;20428;-80
2022/11/06 10:04:16;;;;;;;6.65;3.92;;;;;;;;;;5062150;28;20429;-82
2022/11/06 10:06:43;;;;;;;6.07;3.40;;;;;;;;;;5063718;28;20429;-82
2022/11/06 10:09:11;;;;;;;6.93;3.50;;;;;;;;;;5069188;28;20425;-79
2022/11/06 10:11:47;;;;;;;4.37;3.27;;;;;;;;;;5067134;28;20421;-80
2022/11/06 10:14:23;;;;;;;8.00;3.25;;;;;;;;;;5059134;28;20421;-80
2022/11/06 10:16:54;;;;;;;5.75;2.80;;;;;;;;;;5065714;28;20429;-80
2022/11/06 10:19:25;;;;;;;5.65;2.88;;;;;;;;;;5062004;28;20441;-80
2022/11/06 10:21:57;;;;;;;5.30;2.83;;;;;;;;;;5061071;28;20429;-80
2022/11/06 10:24:30;;;;;;;6.38;3.20;;;;;;;;;;5065874;28;20466;-82
2022/11/06 10:26:58;;;;;;;6.00;2.92;;;;;;;;;;5062373;28;20439;-82
2022/11/06 10:29:29;;;;;;;7.60;3.20;;;;;;;;;;5060966;28;20980;-82
2022/11/06 10:32:01;;;;;;;4.78;2.72;;;;;;;;;;5062101;28;20429;-80
2022/11/06 10:34:31;;;;;;;8.25;3.08;;;;;;;;;;5060607;28;20431;-79
2022/11/06 10:37:00;;;;;;;6.57;2.60;;;;;;;;;;5061044;28;20471;-79
2022/11/06 10:39:29;;;;;;;8.38;3.20;;;;;;;;;;5059888;28;20421;-80
2022/11/06 10:41:58;;;;;;;7.88;2.80;;;;;;;;;;5059451;28;20429;-81
2022/11/06 10:44:28;;;;;;;6.37;2.70;;;;;;;;;;5064952;28;20432;-80
2022/11/06 10:46:55;;;;;;;9.98;5.20;;;;;;;;;;5063112;28;20913;-80
2022/11/06 10:49:28;;;;;;;33.38;22.00;;;;;;;;;;5061881;28;20435;-79
2022/11/06 10:52:05;;;;;;;7.10;3.17;;;;;;;;;;5063484;28;20958;-79
2022/11/06 10:54:38;;;;;;;6.30;2.80;;;;;;;;;;5062066;28;20431;-80
2022/11/06 10:57:12;;;;;;;4.13;2.45;;;;;;;;;;5058494;28;20422;-80
2022/11/06 10:59:39;;;;;;;5.10;2.90;;;;;;;;;;5067677;28;20803;-82
2022/11/06 11:02:11;;;;;;;7.90;2.80;;;;;;;;;;5061411;28;20420;-80
2022/11/06 11:04:39;;;;;;;7.10;2.97;;;;;;;;;;5060911;28;20428;-80
2022/11/06 11:07:13;;;;;;;6.55;2.95;;;;;;;;;;5062975;28;20418;-80
2022/11/06 11:09:40;;;;;;;5.68;2.75;;;;;;;;;;5061556;28;20429;-82
2022/11/06 11:12:18;;;;;;;4.28;2.25;;;;;;;;;;5058155;28;20428;-80
2022/11/06 11:14:45;;;;;;;5.90;2.50;;;;;;;;;;5059454;28;20436;-80
2022/11/06 11:17:19;;;;;;;6.88;2.80;;;;;;;;;;5064383;28;20419;-80
2022/11/06 11:19:46;;;;;;;5.80;2.60;;;;;;;;;;5057775;28;20439;-82
2022/11/06 11:22:19;;;;;;;5.80;2.45;;;;;;;;;;5064433;28;20416;-82
2022/11/06 11:24:59;;;;;;;6.63;2.92;;;;;;;;;;5063902;28;20426;-82
2022/11/06 11:27:25;;;;;;;7.40;2.50;;;;;;;;;;5057382;28;20428;-82
2022/11/06 11:29:52;;;;;;;4.50;2.20;;;;;;;;;;5063433;28;20431;-82
2022/11/06 11:32:20;;;;;;;7.60;2.83;;;;;;;;;;5059070;28;20427;-82
2022/11/06 11:34:47;;;;;;;5.05;1.83;;;;;;;;;;5060239;28;20433;-82
2022/11/06 11:37:24;;;;;;;5.28;2.60;;;;;;;;;;5061533;28;20424;-82
2022/11/06 11:39:50;;;;;;;4.50;2.10;;;;;;;;;;5062713;28;20425;-82
2022/11/06 11:42:22;;;;;;;6.97;2.80;;;;;;;;;;5062786;28;20647;-80
2022/11/06 11:45:06;;;;;;;7.20;2.40;;;;;;;;;;5058820;28;20435;-80
2022/11/06 11:47:32;;;;;;;7.50;3.00;;;;;;;;;;5061505;28;20424;-80
2022/11/06 11:50:16;;;;;;;6.90;2.80;;;;;;;;;;5062234;28;20429;-80
2022/11/06 11:52:45;;;;;;;3.40;2.25;;;;;;;;;;5060845;28;20531;-82
2022/11/06 11:55:14;;;;;;;5.72;2.72;;;;;;;;;;5060670;28;20429;-81
2022/11/06 11:57:44;;;;;;;6.18;2.30;;;;;;;;;;5059498;28;20425;-81
2022/11/06 12:00:15;;;;;;;5.20;2.30;;;;;;;;;;5060937;28;20436;-81
2022/11/06 12:02:43;;;;;;;7.28;2.90;;;;;;;;;;5060051;28;20495;-82
2022/11/06 12:05:12;;;;;;;5.70;2.50;;;;;;;;;;5056429;28;20448;-81
2022/11/06 12:07:41;;;;;;;3.88;2.45;;;;;;;;;;5061839;28;20815;-79
2022/11/06 12:10:19;;;;;;;7.72;2.60;;;;;;;;;;5060589;28;20443;-80
2022/11/06 12:12:49;;;;;;;4.30;2.40;;;;;;;;;;5065087;28;20513;-80
2022/11/06 12:15:20;;;;;;;3.85;2.58;;;;;;;;;;5062031;28;20437;-81
2022/11/06 12:17:51;;;;;;;3.58;2.10;;;;;;;;;;5061209;28;20423;-80
2022/11/06 12:20:23;;;;;;;5.43;2.70;;;;;;;;;;5063223;28;20847;-80
2022/11/06 12:22:51;;;;;;;5.57;2.30;;;;;;;;;;5065892;28;20423;-80
2022/11/06 12:25:22;;;;;;;6.10;2.10;;;;;;;;;;5063100;28;20451;-80
2022/11/06 12:27:51;;;;;;;6.18;2.42;;;;;;;;;;5059274;28;20436;-80
2022/11/06 12:30:19;;;;;;;5.40;2.10;;;;;;;;;;5062759;28;20423;-80
2022/11/06 12:32:54;;;;;;;3.90;2.30;;;;;;;;;;5062766;28;20917;-80
2022/11/06 12:35:24;;;;;;;4.82;2.17;;;;;;;;;;5063939;28;20516;-80
2022/11/06 12:37:58;;;;;;;5.00;2.30;;;;;;;;;;5064184;28;20822;-80
2022/11/06 12:40:28;;;;;;;6.13;2.47;;;;;;;;;;5064337;28;20429;-81
2022/11/06 12:43:02;;;;;;;7.22;2.63;;;;;;;;;;5064194;28;20419;-80
2022/11/06 12:45:33;;;;;;;5.57;2.70;;;;;;;;;;5070191;28;20431;-80
2022/11/06 12:48:04;;;;;;;2.60;1.92;;;;;;;;;;5062845;28;21104;-80
2022/11/06 12:50:33;;;;;;;5.05;2.30;;;;;;;;;;5062582;28;20437;-80
2022/11/06 12:53:14;;;;;;;3.50;2.20;;;;;;;;;;5062460;28;20429;-81
2022/11/06 12:55:46;;;;;;;7.68;2.60;;;;;;;;;;5063354;28;20434;-80
2022/11/06 12:58:26;;;;;;;4.13;2.10;;;;;;;;;;5063213;28;20436;-80
2022/11/06 13:00:59;;;;;;;4.05;1.75;;;;;;;;;;5062262;28;20427;-81
2022/11/06 13:03:33;;;;;;;3.67;2.10;;;;;;;;;;5061026;28;20425;-82
2022/11/06 13:06:05;;;;;;;3.55;2.00;;;;;;;;;;5065160;28;20429;-82
2022/11/06 13:08:36;;;;;;;5.20;2.10;;;;;;;;;;5060829;28;20429;-82
2022/11/06 13:11:10;;;;;;;4.80;2.05;;;;;;;;;;5065765;28;20456;-82
2022/11/06 13:13:44;;;;;;;4.35;1.90;;;;;;;;;;5062635;28;20421;-80
2022/11/06 13:16:16;;;;;;;7.45;2.05;;;;;;;;;;5063057;28;20425;-82
2022/11/06 13:18:47;;;;;;;6.32;2.50;;;;;;;;;;5064426;28;20427;-81
2022/11/06 13:21:17;;;;;;;5.05;2.10;;;;;;;;;;5062781;28;20437;-80
2022/11/06 13:23:46;;;;;;;3.65;1.83;;;;;;;;;;5059164;28;20421;-80
2022/11/06 13:26:16;;;;;;;3.60;2.00;;;;;;;;;;5064506;28;20787;-80
2022/11/06 13:28:44;;;;;;;3.50;2.17;;;;;;;;;;5062612;28;20935;-80
2022/11/06 13:31:12;;;;;;;3.33;2.10;;;;;;;;;;5066100;28;20437;-81
2022/11/06 13:33:41;;;;;;;6.10;2.30;;;;;;;;;;5064098;28;20419;-80
2022/11/06 13:36:07;;;;;;;5.55;2.70;;;;;;;;;;5063456;28;20430;-82
2022/11/06 13:38:35;;;;;;;4.63;2.20;;;;;;;;;;5061819;28;20425;-81
2022/11/06 13:41:06;;;;;;;3.95;2.10;;;;;;;;;;5065918;28;20421;-80
2022/11/06 13:43:39;;;;;;;7.63;2.78;;;;;;;;;;5063077;28;20406;-81
2022/11/06 13:46:09;;;;;;;7.88;2.20;;;;;;;;;;5064535;28;20939;-82
2022/11/06 13:48:41;;;;;;;5.88;2.50;;;;;;;;;;5065314;28;20424;-81
2022/11/06 13:51:11;;;;;;;4.57;2.05;;;;;;;;;;5066003;28;20413;-82
2022/11/06 13:53:41;;;;;;;5.88;2.60;;;;;;;;;;5072523;28;20420;-81
2022/11/06 13:56:14;;;;;;;3.58;2.20;;;;;;;;;;5067457;28;20413;-81
2022/11/06 13:58:55;;;;;;;4.40;2.30;;;;;;;;;;5065845;28;20456;-82
2022/11/06 14:01:30;;;;;;;5.13;2.80;;;;;;;;;;5063113;28;20417;-81
2022/11/06 14:04:11;;;;;;;4.03;2.15;;;;;;;;;;5062995;28;20416;-81
2022/11/06 14:06:38;;;;;;;5.97;2.80;;;;;;;;;;5062577;28;20424;-82
2022/11/06 14:09:06;;;;;;;2.90;2.30;;;;;;;;;;5061646;28;20417;-82
2022/11/06 14:11:34;;;;;;;4.55;2.40;;;;;;;;;;5061812;28;20914;-82
2022/11/06 14:14:01;;;;;;;5.45;2.65;;;;;;;;;;5064131;28;20423;-79
2022/11/06 14:16:30;;;;;;;5.07;2.27;;;;;;;;;;5063846;28;20424;-81
2022/11/06 14:18:58;;;;;;;4.80;1.90;;;;;;;;;;5069850;28;20421;-81
2022/11/06 14:21:43;;;;;;;7.18;2.38;;;;;;;;;;5066342;28;20434;-81
2022/11/06 14:24:15;;;;;;;4.95;2.50;;;;;;;;;;5074759;28;20411;-81
2022/11/06 14:26:42;;;;;;;3.00;1.92;;;;;;;;;;5073271;28;20427;-81
2022/11/06 14:29:27;;;;;;;5.93;2.13;;;;;;;;;;5084650;28;20444;-81
2022/11/06 14:32:02;;;;;;;4.88;2.60;;;;;;;;;;5083220;28;20413;-81
2022/11/06 14:34:29;;;;;;;4.80;2.10;;;;;;;;;;5059563;28;20428;-81
2022/11/06 14:36:56;;;;;;;6.40;2.40;;;;;;;;;;5063317;28;20433;-81
2022/11/06 14:39:51;;;;;;;4.18;1.90;;;;;;;;;;5063821;28;20495;-81
2022/11/06 14:42:19;;;;;;;4.03;2.10;;;;;;;;;;5062579;28;20423;-81
2022/11/06 14:44:47;;;;;;;4.80;1.92;;;;;;;;;;5064150;28;20777;-81
2022/11/06 14:47:29;;;;;;;6.72;2.35;;;;;;;;;;5061665;28;20592;-81
2022/11/06 14:49:57;;;;;;;6.37;2.80;;;;;;;;;;5064796;28;20408;-81
2022/11/06 14:52:26;;;;;;;4.45;2.20;;;;;;;;;;5063344;28;20430;-81
2022/11/06 14:54:56;;;;;;;3.33;2.20;;;;;;;;;;5067702;28;20516;-81
2022/11/06 14:57:40;;;;;;;5.75;2.35;;;;;;;;;;5064334;28;20438;-81
2022/11/06 15:00:08;;;;;;;4.43;2.20;;;;;;;;;;5060570;28;20422;-81
2022/11/06 15:02:36;;;;;;;5.80;2.30;;;;;;;;;;5065007;28;20418;-81
2022/11/06 15:05:04;;;;;;;4.60;2.60;;;;;;;;;;5063515;28;20471;-81